Kezdőlap
METAR-TAF:

METAR-TAF

Repülőterek :

Carroll, Iowa, Amerikai Egyesült Államok

földrajzi szélesség: 42-03N, földrajzi hosszúság: 094-47W, magasság: 375 m

Jelenlegi meteorológiai megfigyelések

A jelentés 23 perccel ezelõtt készült, 05:15 UTC
Nyugati szél 7 kt
Hőmérséklet 17°C
Páratartalom 42%
Légköri nyomás 1008 hPa
Látótávolság: 16.1 km
Kevés felhő 3400 lábon
Kevés felhő 6500 lábon
Borult 10000 lábon

METAR: KCIN 300515Z AUTO 27007KT 10SM FEW034 FEW065 OVC100 17/04 A2976 RMK AO2

Idő: 00:38 (05:38 UTC)


TAF: hiányzik

Meteorológiai megfigyelések és előrejelzések több, mint 4000 repülőtéren (METAR és TAF jelentéseket).

A térképen piros és sárga pontok jelzik az elérhető meteorológiai állomásokat.

Mozgassa az egeret a pont fölött, hogy megjelenjen az állomás neve.

Azután kattintson az időjárási megfigyelések és előrejelzések megtekintéséhez.

A térkép megváltoztatása: kattintson a fekete keresztel jelölt zöld gombra ráközelítéshez, a vonallal jelölt zöld gombra távolításhoz, vagy a zöld nyilakra a szomszédos térképek eléréséhez.


METAR-TAF: